createdAt,value
2022-11-29T00:01:34.805Z,34.45
2022-11-29T00:04:02.210Z,34.90
2022-11-29T00:06:32.410Z,33.75
2022-11-29T00:09:02.036Z,34.72
2022-11-29T00:14:18.006Z,33.17
2022-11-29T00:16:45.421Z,32.58
2022-11-29T00:19:13.339Z,34.53
2022-11-29T00:21:40.018Z,33.88
2022-11-29T00:24:07.252Z,34.53
2022-11-29T00:26:33.883Z,34.92
2022-11-29T00:29:00.512Z,34.85
2022-11-29T00:31:33.538Z,36.65
2022-11-29T00:34:02.191Z,37.60
2022-11-29T00:36:29.453Z,35.97
2022-11-29T00:38:56.384Z,33.75
2022-11-29T00:41:23.220Z,34.88
2022-11-29T00:43:49.888Z,34.42
2022-11-29T00:46:16.825Z,37.08
2022-11-29T00:48:43.710Z,36.00
2022-11-29T00:51:10.356Z,36.00
2022-11-29T00:53:37.447Z,36.47
2022-11-29T00:56:05.325Z,36.55
2022-11-29T00:58:32.033Z,35.78
2022-11-29T01:00:58.925Z,35.97
2022-11-29T01:03:25.552Z,35.95
2022-11-29T01:05:52.272Z,37.00
2022-11-29T01:08:19.097Z,36.47
2022-11-29T01:10:45.789Z,37.15
2022-11-29T01:13:12.468Z,34.65
2022-11-29T01:15:38.987Z,33.90
2022-11-29T01:18:05.665Z,34.28
2022-11-29T01:20:32.265Z,34.80
2022-11-29T01:22:59.145Z,34.58
2022-11-29T01:25:25.780Z,35.03
2022-11-29T01:27:52.374Z,36.65
2022-11-29T01:30:19.136Z,34.95
2022-11-29T01:32:45.733Z,34.78
2022-11-29T01:35:12.398Z,36.58
2022-11-29T01:37:39.170Z,35.00
2022-11-29T01:40:06.598Z,35.53
2022-11-29T01:42:33.141Z,35.60
2022-11-29T01:45:01.239Z,35.78
2022-11-29T01:47:28.442Z,34.25
2022-11-29T01:49:55.085Z,34.50
2022-11-29T01:52:25.555Z,35.70
2022-11-29T01:54:56.913Z,34.92
2022-11-29T01:57:24.123Z,35.35
2022-11-29T01:59:55.834Z,32.75
2022-11-29T02:02:32.639Z,33.85
2022-11-29T02:05:01.425Z,32.15
2022-11-29T02:07:28.197Z,33.10
2022-11-29T02:09:54.813Z,34.28
2022-11-29T02:12:32.858Z,34.85
2022-11-29T02:15:14.548Z,32.97
2022-11-29T02:18:05.269Z,34.00
2022-11-29T02:20:34.808Z,34.20
2022-11-29T02:23:29.415Z,33.97
2022-11-29T02:26:01.897Z,34.17
2022-11-29T02:28:50.664Z,33.35
2022-11-29T02:31:55.004Z,33.27
2022-11-29T02:34:36.744Z,33.95
2022-11-29T02:37:18.767Z,32.15
2022-11-29T02:39:57.206Z,32.17
2022-11-29T02:42:56.551Z,35.53
2022-11-29T02:45:38.695Z,32.13
2022-11-29T02:48:14.243Z,33.78
2022-11-29T02:51:12.120Z,33.15
2022-11-29T02:53:51.182Z,32.85
2022-11-29T02:56:31.851Z,33.13
2022-11-29T02:59:04.686Z,34.08
2022-11-29T03:01:53.231Z,34.58
2022-11-29T03:04:37.855Z,36.72
2022-11-29T03:07:13.561Z,34.13
2022-11-29T03:10:04.729Z,35.38
2022-11-29T03:12:40.223Z,33.28
2022-11-29T03:15:15.790Z,33.90
2022-11-29T03:18:15.587Z,33.15
2022-11-29T03:21:08.399Z,31.88
2022-11-29T03:23:43.355Z,33.88
2022-11-29T03:26:34.782Z,33.17
2022-11-29T03:29:17.524Z,33.47
2022-11-29T03:32:11.885Z,33.58
2022-11-29T03:34:59.637Z,30.42
2022-11-29T03:37:38.643Z,31.65
2022-11-29T03:40:08.225Z,32.30
2022-11-29T03:45:37.065Z,28.92
2022-11-29T03:48:27.909Z,31.02
2022-11-29T03:51:08.236Z,29.90
2022-11-29T03:53:53.302Z,30.73
2022-11-29T03:56:28.961Z,30.10
2022-11-29T04:01:54.771Z,31.52
2022-11-29T04:04:48.896Z,32.63
2022-11-29T04:07:33.571Z,31.98
2022-11-29T04:10:15.081Z,33.33
2022-11-29T04:12:47.353Z,34.05
2022-11-29T04:15:50.724Z,31.58
2022-11-29T04:18:23.063Z,33.50
2022-11-29T04:21:06.600Z,33.70
2022-11-29T04:23:53.085Z,33.25
2022-11-29T04:26:57.227Z,31.23
2022-11-29T04:29:44.497Z,33.60
2022-11-29T04:32:29.897Z,33.83
2022-11-29T04:35:21.218Z,31.85
2022-11-29T04:38:18.764Z,30.13
2022-11-29T04:41:29.465Z,32.08
2022-11-29T04:44:46.923Z,31.70
2022-11-29T04:47:25.655Z,30.20
2022-11-29T04:50:26.079Z,32.58
2022-11-29T04:52:58.832Z,31.70
2022-11-29T04:55:40.937Z,30.52
2022-11-29T04:58:46.618Z,32.20
2022-11-29T05:01:32.365Z,33.60
2022-11-29T05:04:04.904Z,31.13
2022-11-29T05:06:55.889Z,32.58
2022-11-29T05:09:48.556Z,31.42
2022-11-29T05:12:25.287Z,33.08
2022-11-29T05:15:08.087Z,36.05
2022-11-29T05:17:50.000Z,35.03
2022-11-29T05:20:50.757Z,34.47
2022-11-29T05:23:45.031Z,32.05
2022-11-29T05:26:23.109Z,34.70
2022-11-29T05:29:09.978Z,35.67
2022-11-29T05:31:54.853Z,32.90
2022-11-29T05:34:51.732Z,32.30
2022-11-29T05:37:21.196Z,30.20
2022-11-29T05:40:04.103Z,31.33
2022-11-29T05:42:51.051Z,31.48
2022-11-29T05:45:22.339Z,33.63
2022-11-29T05:48:36.437Z,31.08
2022-11-29T05:51:15.040Z,31.73
2022-11-29T05:54:04.149Z,29.90
2022-11-29T05:56:50.012Z,30.95
2022-11-29T05:59:25.244Z,28.98
2022-11-29T06:02:14.225Z,31.13
2022-11-29T06:05:07.337Z,31.20
2022-11-29T06:07:58.468Z,34.38
2022-11-29T06:10:30.011Z,32.60
2022-11-29T06:13:18.923Z,34.78
2022-11-29T06:16:26.135Z,32.55
2022-11-29T06:19:21.322Z,35.90
2022-11-29T06:21:53.022Z,35.45
2022-11-29T06:24:41.694Z,34.58
2022-11-29T06:27:24.853Z,34.08
2022-11-29T06:30:07.571Z,33.58
2022-11-29T06:32:46.837Z,32.92
2022-11-29T06:35:14.172Z,33.03
2022-11-29T06:37:46.884Z,32.17
2022-11-29T06:40:16.131Z,33.15
2022-11-29T06:42:44.824Z,33.45
2022-11-29T06:45:15.105Z,32.83
2022-11-29T06:47:54.211Z,32.33
2022-11-29T06:50:59.794Z,33.70
2022-11-29T06:54:02.741Z,34.53
2022-11-29T06:56:43.076Z,30.80
2022-11-29T06:59:28.649Z,36.35
2022-11-29T07:02:16.964Z,36.13
2022-11-29T07:04:52.644Z,37.23
2022-11-29T07:07:21.988Z,34.15
2022-11-29T07:09:54.859Z,32.45
2022-11-29T07:12:27.124Z,34.58
2022-11-29T07:14:55.933Z,34.25
2022-11-29T07:17:55.284Z,35.50
2022-11-29T07:20:54.748Z,33.42
2022-11-29T07:23:35.608Z,35.90
2022-11-29T07:26:15.872Z,37.78
2022-11-29T07:28:49.116Z,35.47
2022-11-29T07:31:22.985Z,34.72
2022-11-29T07:34:17.804Z,35.58
2022-11-29T07:36:57.219Z,33.38
2022-11-29T07:39:51.261Z,31.95
2022-11-29T07:42:31.358Z,33.88
2022-11-29T07:45:11.925Z,33.85
2022-11-29T07:47:38.703Z,33.15
2022-11-29T07:50:05.949Z,33.50
2022-11-29T07:52:33.536Z,34.65
2022-11-29T07:55:00.225Z,35.35
2022-11-29T07:57:26.856Z,35.05
2022-11-29T07:59:53.429Z,33.78
2022-11-29T08:02:27.967Z,34.90
2022-11-29T08:04:54.612Z,32.42
2022-11-29T08:07:21.647Z,32.33
2022-11-29T08:09:48.482Z,33.97
2022-11-29T08:12:15.245Z,34.40
2022-11-29T08:14:41.861Z,39.80
2022-11-29T08:17:08.600Z,39.13
2022-11-29T08:19:35.338Z,37.85
2022-11-29T08:22:02.102Z,54.05
2022-11-29T08:24:28.620Z,35.67
2022-11-29T08:26:55.217Z,47.20
2022-11-29T08:29:21.834Z,53.88
2022-11-29T08:31:53.540Z,38.35
2022-11-29T08:34:22.264Z,39.85
2022-11-29T08:36:49.895Z,36.05
2022-11-29T08:39:16.894Z,37.08
2022-11-29T08:41:43.589Z,33.95
2022-11-29T08:44:10.371Z,34.80
2022-11-29T08:46:55.662Z,33.70
2022-11-29T08:49:22.300Z,34.45
2022-11-29T08:51:52.301Z,32.30
2022-11-29T08:54:18.933Z,33.65
2022-11-29T08:57:37.439Z,33.25
2022-11-29T08:59:32.066Z,32.70
2022-11-29T09:01:58.703Z,32.53
2022-11-29T09:04:25.427Z,28.60
2022-11-29T09:06:51.983Z,30.77
2022-11-29T09:09:18.591Z,31.17
2022-11-29T09:11:49.263Z,31.25
2022-11-29T09:14:17.164Z,32.30
2022-11-29T09:16:43.754Z,29.95
2022-11-29T09:19:10.310Z,31.23
2022-11-29T09:21:36.986Z,31.70
2022-11-29T09:24:06.271Z,31.83
2022-11-29T09:26:35.509Z,30.98
2022-11-29T09:29:05.125Z,34.00
2022-11-29T09:33:59.220Z,32.03
2022-11-29T09:36:28.769Z,34.15
2022-11-29T09:38:57.158Z,33.13
2022-11-29T09:41:48.969Z,32.33
2022-11-29T09:44:53.458Z,34.17
2022-11-29T09:47:33.142Z,35.85
2022-11-29T09:52:57.439Z,33.47
2022-11-29T09:55:26.821Z,35.57
2022-11-29T09:57:56.610Z,33.63
2022-11-29T10:00:23.980Z,36.53
2022-11-29T10:02:53.499Z,36.47
2022-11-29T10:05:29.955Z,34.30
2022-11-29T10:08:23.239Z,35.97
2022-11-29T10:10:54.318Z,35.28
2022-11-29T10:13:35.556Z,36.00
2022-11-29T10:16:23.582Z,35.15
2022-11-29T10:18:56.456Z,33.97
2022-11-29T10:21:30.732Z,32.72
2022-11-29T10:24:14.688Z,34.72
2022-11-29T10:26:41.422Z,31.45
2022-11-29T10:29:13.517Z,33.65
2022-11-29T10:31:43.973Z,36.22
2022-11-29T10:34:16.981Z,38.28
2022-11-29T10:36:50.221Z,35.38
2022-11-29T10:39:23.511Z,36.28
2022-11-29T10:42:00.046Z,34.97
2022-11-29T10:44:27.212Z,32.03
2022-11-29T10:46:54.508Z,38.78
2022-11-29T10:49:23.694Z,34.70
2022-11-29T10:51:50.273Z,33.08
2022-11-29T10:54:22.760Z,35.88
2022-11-29T10:56:49.861Z,37.30
2022-11-29T10:59:26.000Z,36.58
2022-11-29T11:01:53.226Z,35.78
2022-11-29T11:04:31.304Z,36.00
2022-11-29T11:07:01.359Z,34.33
2022-11-29T11:09:35.690Z,36.60
2022-11-29T11:12:16.913Z,33.08
2022-11-29T11:14:45.009Z,32.30
2022-11-29T11:17:31.161Z,34.08
2022-11-29T11:20:08.379Z,31.73
2022-11-29T11:22:39.751Z,31.30
2022-11-29T11:25:25.547Z,30.75
2022-11-29T11:27:52.281Z,33.45
2022-11-29T11:30:26.961Z,33.00
2022-11-29T11:33:19.126Z,31.08
2022-11-29T11:36:09.542Z,37.53
2022-11-29T11:38:40.377Z,35.33
2022-11-29T11:41:19.070Z,36.63
2022-11-29T11:43:56.496Z,35.10
2022-11-29T11:46:24.083Z,33.35
2022-11-29T11:48:51.609Z,35.30
2022-11-29T11:51:25.401Z,32.50
2022-11-29T11:53:56.124Z,34.25
2022-11-29T11:56:24.209Z,34.97
2022-11-29T11:58:54.568Z,32.88
2022-11-29T12:01:38.505Z,29.95
2022-11-29T12:04:23.048Z,32.35
2022-11-29T12:06:55.939Z,30.33
2022-11-29T12:09:41.423Z,30.00
2022-11-29T12:12:11.849Z,30.92
2022-11-29T12:15:00.257Z,30.85
2022-11-29T12:17:27.162Z,28.73
2022-11-29T14:01:01.565Z,22.60
2022-11-29T14:04:06.706Z,21.70
2022-11-29T14:06:36.203Z,22.05
2022-11-29T14:09:25.176Z,20.73
2022-11-29T14:11:57.016Z,21.35
2022-11-29T14:14:53.131Z,18.60
2022-11-29T14:17:54.909Z,18.00
2022-11-29T14:20:30.346Z,17.88
2022-11-29T14:23:06.015Z,17.00
2022-11-29T14:25:56.461Z,16.08
2022-11-29T14:28:22.972Z,16.77
2022-11-29T14:31:03.575Z,16.00
2022-11-29T14:33:55.244Z,16.02
2022-11-29T14:36:27.806Z,12.15
2022-11-29T14:39:25.448Z,12.55
2022-11-29T14:42:19.823Z,12.05
2022-11-29T14:44:51.270Z,14.25
2022-11-29T14:47:24.133Z,13.98
2022-11-29T14:49:53.503Z,13.68
2022-11-29T14:52:37.570Z,15.38
2022-11-29T14:55:07.251Z,14.65
2022-11-29T14:58:01.263Z,15.38
2022-11-29T15:00:48.747Z,17.33
2022-11-29T15:03:33.150Z,18.05
2022-11-29T15:06:07.544Z,19.63
2022-11-29T15:08:54.094Z,19.60
2022-11-29T15:11:35.234Z,20.10
2022-11-29T15:14:12.485Z,20.40
2022-11-29T15:16:47.253Z,21.30
2022-11-29T15:19:32.746Z,21.58
2022-11-29T15:22:18.294Z,20.33
2022-11-29T15:24:54.232Z,21.50
2022-11-29T15:27:21.794Z,24.38
2022-11-29T15:29:48.984Z,26.42
2022-11-29T15:32:32.686Z,28.65
2022-11-29T15:34:59.831Z,29.33
2022-11-29T15:37:36.688Z,28.23
2022-11-29T15:40:13.309Z,27.15
2022-11-29T15:42:40.576Z,27.25
2022-11-29T15:45:25.944Z,23.45
2022-11-29T15:47:53.340Z,24.58
2022-11-29T15:50:32.674Z,27.35
2022-11-29T15:53:07.130Z,23.23
2022-11-29T15:55:35.784Z,24.80
2022-11-29T15:58:08.526Z,24.98
2022-11-29T16:00:36.281Z,25.42
2022-11-29T16:03:05.687Z,25.35
2022-11-29T16:05:37.657Z,24.50
2022-11-29T16:08:08.128Z,26.75
2022-11-29T16:10:39.645Z,25.55
2022-11-29T16:13:27.512Z,26.08
2022-11-29T16:16:28.083Z,25.67
2022-11-29T16:18:55.210Z,25.08
2022-11-29T16:21:30.406Z,26.45
2022-11-29T16:23:58.181Z,25.77
2022-11-29T16:26:36.094Z,23.70
2022-11-29T16:29:03.357Z,26.38
2022-11-29T16:31:35.875Z,25.30
2022-11-29T16:34:24.885Z,26.05
2022-11-29T16:37:06.331Z,27.67
2022-11-29T16:39:38.940Z,25.20
2022-11-29T16:42:25.870Z,25.92
2022-11-29T16:45:01.899Z,26.00
2022-11-29T16:47:46.554Z,26.90
2022-11-29T16:50:18.332Z,42.55
2022-11-29T16:52:46.032Z,75.43
2022-11-29T16:55:13.120Z,91.75
2022-11-29T16:57:40.217Z,81.82
2022-11-29T17:00:14.335Z,75.10
2022-11-29T17:02:41.084Z,71.15
2022-11-29T17:05:09.056Z,50.58
2022-11-29T17:07:39.331Z,44.33
2022-11-29T17:10:09.137Z,37.78
2022-11-29T17:12:35.994Z,33.72
2022-11-29T17:15:03.556Z,30.98
2022-11-29T17:17:30.195Z,27.65
2022-11-29T17:19:58.164Z,30.30
2022-11-29T17:22:25.382Z,27.30
2022-11-29T17:24:52.116Z,27.50
2022-11-29T17:27:18.758Z,27.45
2022-11-29T17:29:45.402Z,28.13
2022-11-29T17:32:11.971Z,26.80
2022-11-29T17:34:38.599Z,27.00
2022-11-29T17:37:05.304Z,26.98
2022-11-29T17:39:32.494Z,30.02
2022-11-29T17:41:59.207Z,30.27
2022-11-29T17:44:25.869Z,30.25
2022-11-29T17:46:52.649Z,28.25
2022-11-29T17:49:19.240Z,29.50
2022-11-29T17:51:53.644Z,28.50
2022-11-29T17:54:22.835Z,28.70
2022-11-29T17:56:50.304Z,28.23
2022-11-29T17:59:17.266Z,28.23
2022-11-29T18:01:46.781Z,28.58
2022-11-29T18:06:40.938Z,27.67
2022-11-29T18:09:10.371Z,30.13
2022-11-29T18:11:48.243Z,27.80
2022-11-29T18:14:23.840Z,28.50
2022-11-29T18:16:51.626Z,30.48
2022-11-29T18:19:25.427Z,28.85
2022-11-29T18:21:52.389Z,30.92
2022-11-29T18:24:19.678Z,28.80
2022-11-29T18:26:47.104Z,31.17
2022-11-29T18:29:14.167Z,30.30
2022-11-29T18:31:43.750Z,29.65
2022-11-29T18:36:49.795Z,28.73
2022-11-29T18:39:20.031Z,29.23
2022-11-29T18:41:49.211Z,31.35
2022-11-29T18:44:18.391Z,31.33
2022-11-29T18:46:46.156Z,32.60
2022-11-29T18:49:15.456Z,33.25
2022-11-29T18:51:44.597Z,33.78
2022-11-29T18:56:39.002Z,34.22
2022-11-29T18:59:10.086Z,34.15
2022-11-29T19:01:41.059Z,35.40
2022-11-29T19:04:20.681Z,35.33
2022-11-29T19:06:48.024Z,35.85
2022-11-29T19:09:24.802Z,37.90
2022-11-29T19:11:51.539Z,36.28
2022-11-29T19:14:18.924Z,36.08
2022-11-29T19:16:49.319Z,34.95
2022-11-29T19:19:18.556Z,36.30
2022-11-29T19:21:45.457Z,34.78
2022-11-29T19:24:14.869Z,33.65
2022-11-29T19:26:44.598Z,36.00
2022-11-29T19:29:13.355Z,34.88
2022-11-29T19:31:40.046Z,34.25
2022-11-29T19:34:06.947Z,33.20
2022-11-29T19:36:33.849Z,32.63
2022-11-29T19:39:01.782Z,34.10
2022-11-29T19:41:33.941Z,34.55
2022-11-29T19:44:03.551Z,35.33
2022-11-29T19:49:00.956Z,34.67
2022-11-29T19:51:29.202Z,34.50
2022-11-29T19:53:59.458Z,31.65
2022-11-29T19:56:26.641Z,33.88
2022-11-29T19:58:54.299Z,35.60
2022-11-29T20:01:25.437Z,37.17
2022-11-29T20:03:53.301Z,34.30
2022-11-29T20:06:22.648Z,35.00
2022-11-29T20:08:49.791Z,35.33
2022-11-29T20:11:19.468Z,36.20
2022-11-29T20:16:18.195Z,34.17
2022-11-29T20:18:50.592Z,34.72
2022-11-29T20:21:29.698Z,33.88
2022-11-29T20:24:02.405Z,34.50
2022-11-29T20:26:31.438Z,35.55
2022-11-29T20:28:58.589Z,35.92
2022-11-29T20:31:25.495Z,36.30
2022-11-29T20:33:59.345Z,37.20
2022-11-29T20:36:41.234Z,38.75
2022-11-29T20:39:07.971Z,37.40
2022-11-29T20:41:40.238Z,38.67
2022-11-29T20:44:25.478Z,39.72
2022-11-29T20:46:57.371Z,44.95
2022-11-29T20:49:24.500Z,45.55
2022-11-29T20:52:05.497Z,44.00
2022-11-29T20:54:32.068Z,44.30
2022-11-29T20:56:58.745Z,45.80
2022-11-29T20:59:25.371Z,42.45
2022-11-29T21:01:52.062Z,39.58
2022-11-29T21:04:23.213Z,38.63
2022-11-29T21:06:50.310Z,37.20
2022-11-29T21:09:16.950Z,37.50
2022-11-29T21:11:43.863Z,36.75
2022-11-29T21:14:10.807Z,36.67
2022-11-29T21:16:37.747Z,36.42
2022-11-29T21:19:04.856Z,36.95
2022-11-29T21:21:48.423Z,36.17
2022-11-29T21:24:40.975Z,33.17
2022-11-29T21:27:14.059Z,34.97
2022-11-29T21:29:41.087Z,36.28
2022-11-29T21:32:21.090Z,35.28
2022-11-29T21:34:48.514Z,37.53
2022-11-29T21:37:18.366Z,34.40
2022-11-29T21:42:12.248Z,32.05
2022-11-29T21:44:39.058Z,33.30
2022-11-29T21:47:05.981Z,36.53
2022-11-29T21:49:32.693Z,34.15
2022-11-29T21:52:04.531Z,34.47
2022-11-29T21:54:31.202Z,33.03
2022-11-29T21:56:58.160Z,34.92
2022-11-29T21:59:25.064Z,32.88
2022-11-29T22:01:52.955Z,34.33
2022-11-29T22:04:20.279Z,38.13
2022-11-29T22:06:47.539Z,45.15
2022-11-29T22:09:14.573Z,37.15
2022-11-29T22:11:41.985Z,36.85
2022-11-29T22:14:14.032Z,37.22
2022-11-29T22:16:41.217Z,42.50
2022-11-29T22:19:08.939Z,50.00
2022-11-29T22:21:35.601Z,55.97
2022-11-29T22:24:02.148Z,48.83
2022-11-29T22:26:28.969Z,46.15
2022-11-29T22:28:55.478Z,37.65
2022-11-29T22:31:22.081Z,35.42
2022-11-29T22:33:48.985Z,33.15
2022-11-29T22:36:15.624Z,32.17
2022-11-29T22:38:42.300Z,31.52
2022-11-29T22:41:11.562Z,29.85
2022-11-29T22:43:39.373Z,30.15
2022-11-29T22:46:13.593Z,30.23
2022-11-29T22:48:41.819Z,30.25
2022-11-29T22:51:20.372Z,29.73
2022-11-29T22:53:54.281Z,30.00
2022-11-29T22:56:22.575Z,30.75
2022-11-29T22:58:49.408Z,30.42
2022-11-29T23:01:18.124Z,30.60
2022-11-29T23:03:48.396Z,31.63
2022-11-29T23:06:17.219Z,29.95
2022-11-29T23:08:45.010Z,30.08
2022-11-29T23:11:14.506Z,27.50
2022-11-29T23:13:42.506Z,28.63
2022-11-29T23:16:15.974Z,28.50
2022-11-29T23:18:42.876Z,28.13
2022-11-29T23:21:21.390Z,28.10
2022-11-29T23:23:52.917Z,27.77
2022-11-29T23:26:24.541Z,26.77
2022-11-29T23:28:51.467Z,26.52
2022-11-29T23:31:20.016Z,26.45
2022-11-29T23:33:46.819Z,26.10
2022-11-29T23:36:14.293Z,26.40
2022-11-29T23:38:41.016Z,25.00
2022-11-29T23:41:08.488Z,25.33
2022-11-29T23:43:37.145Z,24.65
2022-11-29T23:46:16.784Z,25.58
2022-11-29T23:48:44.405Z,24.20
2022-11-29T23:51:12.102Z,24.02
2022-11-29T23:53:39.753Z,24.70
2022-11-29T23:56:11.508Z,24.20
2022-11-29T23:58:38.547Z,23.92
